sensor_id;sensor_type;location;lat;lon;timestamp;pressure;altitude;pressure_sealevel;temperature;humidity
12146;BME280;6136;47.032;15.398;2023-03-11T00:00:56;95520.22;;;8.04;100.00
12146;BME280;6136;47.032;15.398;2023-03-11T00:03:25;95517.28;;;7.98;100.00
12146;BME280;6136;47.032;15.398;2023-03-11T00:05:55;95510.00;;;7.90;100.00
12146;BME280;6136;47.032;15.398;2023-03-11T00:08:25;95510.53;;;7.84;100.00
12146;BME280;6136;47.032;15.398;2023-03-11T00:10:55;95514.66;;;7.77;100.00
12146;BME280;6136;47.032;15.398;2023-03-11T00:13:25;95515.41;;;7.68;100.00
12146;BME280;6136;47.032;15.398;2023-03-11T00:15:55;95517.84;;;7.60;100.00
12146;BME280;6136;47.032;15.398;2023-03-11T00:18:25;95518.34;;;7.54;100.00
12146;BME280;6136;47.032;15.398;2023-03-11T00:20:57;95509.16;;;7.48;100.00
12146;BME280;6136;47.032;15.398;2023-03-11T00:23:27;95510.28;;;7.34;100.00
12146;BME280;6136;47.032;15.398;2023-03-11T00:25:55;95515.59;;;7.23;100.00
12146;BME280;6136;47.032;15.398;2023-03-11T00:28:25;95511.09;;;7.14;100.00
12146;BME280;6136;47.032;15.398;2023-03-11T00:30:53;95514.66;;;7.13;100.00
12146;BME280;6136;47.032;15.398;2023-03-11T00:33:22;95511.13;;;7.03;100.00
12146;BME280;6136;47.032;15.398;2023-03-11T00:35:50;95513.22;;;6.88;100.00
12146;BME280;6136;47.032;15.398;2023-03-11T00:38:19;95511.69;;;6.63;100.00
12146;BME280;6136;47.032;15.398;2023-03-11T00:40:49;95502.84;;;6.53;100.00
12146;BME280;6136;47.032;15.398;2023-03-11T00:43:17;95508.25;;;6.52;100.00
12146;BME280;6136;47.032;15.398;2023-03-11T00:45:45;95508.84;;;6.44;100.00
12146;BME280;6136;47.032;15.398;2023-03-11T00:48:14;95502.59;;;6.45;100.00
12146;BME280;6136;47.032;15.398;2023-03-11T00:50:42;95508.13;;;6.42;100.00
12146;BME280;6136;47.032;15.398;2023-03-11T00:53:10;95517.19;;;6.38;100.00
12146;BME280;6136;47.032;15.398;2023-03-11T00:55:39;95514.94;;;6.34;100.00
12146;BME280;6136;47.032;15.398;2023-03-11T00:58:11;95523.56;;;6.36;100.00
12146;BME280;6136;47.032;15.398;2023-03-11T01:00:44;95521.97;;;6.33;100.00
12146;BME280;6136;47.032;15.398;2023-03-11T01:03:12;95526.16;;;6.24;100.00
12146;BME280;6136;47.032;15.398;2023-03-11T01:05:40;95536.59;;;6.15;100.00
12146;BME280;6136;47.032;15.398;2023-03-11T01:08:08;95538.97;;;6.07;100.00
12146;BME280;6136;47.032;15.398;2023-03-11T01:10:36;95532.03;;;6.06;100.00
12146;BME280;6136;47.032;15.398;2023-03-11T01:13:05;95543.00;;;6.00;100.00
12146;BME280;6136;47.032;15.398;2023-03-11T01:15:36;95536.06;;;5.99;100.00
12146;BME280;6136;47.032;15.398;2023-03-11T01:18:05;95544.81;;;5.99;100.00
12146;BME280;6136;47.032;15.398;2023-03-11T01:20:33;95541.34;;;5.99;100.00
12146;BME280;6136;47.032;15.398;2023-03-11T01:23:01;95539.66;;;5.98;100.00
12146;BME280;6136;47.032;15.398;2023-03-11T01:25:30;95537.75;;;6.00;100.00
12146;BME280;6136;47.032;15.398;2023-03-11T01:27:58;95536.91;;;5.99;100.00
12146;BME280;6136;47.032;15.398;2023-03-11T01:30:28;95526.97;;;6.03;100.00
12146;BME280;6136;47.032;15.398;2023-03-11T01:32:58;95534.75;;;6.04;100.00
12146;BME280;6136;47.032;15.398;2023-03-11T01:35:28;95525.41;;;6.00;100.00
12146;BME280;6136;47.032;15.398;2023-03-11T01:37:58;95530.19;;;5.95;100.00
12146;BME280;6136;47.032;15.398;2023-03-11T01:40:29;95532.34;;;5.90;100.00
12146;BME280;6136;47.032;15.398;2023-03-11T01:43:03;95526.69;;;5.83;100.00
12146;BME280;6136;47.032;15.398;2023-03-11T01:45:40;95523.56;;;5.78;100.00
12146;BME280;6136;47.032;15.398;2023-03-11T01:48:12;95533.56;;;5.62;100.00
12146;BME280;6136;47.032;15.398;2023-03-11T01:50:42;95544.97;;;5.50;100.00
12146;BME280;6136;47.032;15.398;2023-03-11T01:53:14;95548.56;;;5.49;100.00
12146;BME280;6136;47.032;15.398;2023-03-11T01:55:44;95545.16;;;5.36;100.00
12146;BME280;6136;47.032;15.398;2023-03-11T01:58:17;95553.28;;;5.33;100.00
12146;BME280;6136;47.032;15.398;2023-03-11T02:00:45;95537.97;;;5.27;100.00
12146;BME280;6136;47.032;15.398;2023-03-11T02:03:18;95549.88;;;5.20;100.00
12146;BME280;6136;47.032;15.398;2023-03-11T02:05:49;95542.44;;;5.14;100.00
12146;BME280;6136;47.032;15.398;2023-03-11T02:08:18;95546.25;;;5.10;100.00
12146;BME280;6136;47.032;15.398;2023-03-11T02:10:48;95539.44;;;5.07;100.00
12146;BME280;6136;47.032;15.398;2023-03-11T02:13:19;95546.53;;;4.94;100.00
12146;BME280;6136;47.032;15.398;2023-03-11T02:15:47;95545.41;;;4.85;100.00
12146;BME280;6136;47.032;15.398;2023-03-11T02:18:18;95546.56;;;4.81;100.00
12146;BME280;6136;47.032;15.398;2023-03-11T02:20:51;95550.25;;;4.79;100.00
12146;BME280;6136;47.032;15.398;2023-03-11T02:23:26;95555.59;;;4.77;100.00
12146;BME280;6136;47.032;15.398;2023-03-11T02:26:00;95562.53;;;4.78;100.00
12146;BME280;6136;47.032;15.398;2023-03-11T02:28:34;95567.56;;;4.81;100.00
12146;BME280;6136;47.032;15.398;2023-03-11T02:31:04;95572.03;;;4.92;100.00
12146;BME280;6136;47.032;15.398;2023-03-11T02:33:34;95562.94;;;5.08;100.00
12146;BME280;6136;47.032;15.398;2023-03-11T02:36:04;95553.84;;;5.25;100.00
12146;BME280;6136;47.032;15.398;2023-03-11T02:38:32;95564.22;;;5.27;100.00
12146;BME280;6136;47.032;15.398;2023-03-11T02:41:01;95572.34;;;5.24;100.00
12146;BME280;6136;47.032;15.398;2023-03-11T02:43:33;95563.22;;;5.17;100.00
12146;BME280;6136;47.032;15.398;2023-03-11T02:46:06;95566.81;;;5.16;100.00
12146;BME280;6136;47.032;15.398;2023-03-11T02:48:37;95561.91;;;5.11;100.00
12146;BME280;6136;47.032;15.398;2023-03-11T02:51:06;95567.25;;;5.10;100.00
12146;BME280;6136;47.032;15.398;2023-03-11T02:53:38;95577.97;;;5.06;100.00
12146;BME280;6136;47.032;15.398;2023-03-11T02:56:09;95567.19;;;4.98;100.00
12146;BME280;6136;47.032;15.398;2023-03-11T02:58:38;95578.63;;;4.97;100.00
12146;BME280;6136;47.032;15.398;2023-03-11T03:01:08;95581.31;;;5.08;100.00
12146;BME280;6136;47.032;15.398;2023-03-11T03:03:39;95596.97;;;4.97;100.00
12146;BME280;6136;47.032;15.398;2023-03-11T03:06:07;95591.34;;;4.91;100.00
12146;BME280;6136;47.032;15.398;2023-03-11T03:08:36;95591.19;;;4.81;100.00
12146;BME280;6136;47.032;15.398;2023-03-11T03:11:04;95589.19;;;4.72;100.00
12146;BME280;6136;47.032;15.398;2023-03-11T03:13:32;95598.03;;;4.58;100.00
12146;BME280;6136;47.032;15.398;2023-03-11T03:16:04;95590.38;;;4.55;100.00
12146;BME280;6136;47.032;15.398;2023-03-11T03:18:32;95589.63;;;4.53;100.00
12146;BME280;6136;47.032;15.398;2023-03-11T03:21:00;95583.78;;;4.50;100.00
12146;BME280;6136;47.032;15.398;2023-03-11T03:23:29;95589.66;;;4.41;100.00
12146;BME280;6136;47.032;15.398;2023-03-11T03:26:01;95583.47;;;4.16;100.00
12146;BME280;6136;47.032;15.398;2023-03-11T03:28:30;95588.00;;;4.14;100.00
12146;BME280;6136;47.032;15.398;2023-03-11T03:31:04;95596.41;;;4.07;100.00
12146;BME280;6136;47.032;15.398;2023-03-11T03:33:34;95593.13;;;4.03;100.00
12146;BME280;6136;47.032;15.398;2023-03-11T03:36:05;95599.31;;;4.02;100.00
12146;BME280;6136;47.032;15.398;2023-03-11T03:38:38;95609.59;;;3.93;100.00
12146;BME280;6136;47.032;15.398;2023-03-11T03:41:06;95603.72;;;3.89;100.00
12146;BME280;6136;47.032;15.398;2023-03-11T03:43:38;95606.53;;;3.86;100.00
12146;BME280;6136;47.032;15.398;2023-03-11T03:46:08;95598.22;;;3.79;100.00
12146;BME280;6136;47.032;15.398;2023-03-11T03:48:41;95600.56;;;3.84;100.00
12146;BME280;6136;47.032;15.398;2023-03-11T03:51:11;95599.50;;;3.86;100.00
12146;BME280;6136;47.032;15.398;2023-03-11T03:53:49;95597.00;;;3.85;100.00
12146;BME280;6136;47.032;15.398;2023-03-11T03:56:17;95590.09;;;4.09;100.00
12146;BME280;6136;47.032;15.398;2023-03-11T03:58:46;95599.75;;;4.21;100.00
12146;BME280;6136;47.032;15.398;2023-03-11T04:01:15;95609.78;;;4.40;100.00
12146;BME280;6136;47.032;15.398;2023-03-11T04:03:44;95601.50;;;4.59;95.56
12146;BME280;6136;47.032;15.398;2023-03-11T04:06:16;95606.09;;;5.04;85.58
12146;BME280;6136;47.032;15.398;2023-03-11T04:08:47;95611.06;;;5.33;81.29
12146;BME280;6136;47.032;15.398;2023-03-11T04:11:18;95618.91;;;5.80;74.54
12146;BME280;6136;47.032;15.398;2023-03-11T04:13:47;95625.91;;;5.93;72.29
12146;BME280;6136;47.032;15.398;2023-03-11T04:16:19;95622.78;;;5.88;73.29
12146;BME280;6136;47.032;15.398;2023-03-11T04:18:49;95637.66;;;5.87;72.00
12146;BME280;6136;47.032;15.398;2023-03-11T04:21:18;95620.56;;;6.16;68.14
12146;BME280;6136;47.032;15.398;2023-03-11T04:23:47;95619.47;;;6.08;70.49
12146;BME280;6136;47.032;15.398;2023-03-11T04:26:18;95622.00;;;6.09;68.03
12146;BME280;6136;47.032;15.398;2023-03-11T04:28:46;95615.53;;;6.02;67.15
12146;BME280;6136;47.032;15.398;2023-03-11T04:31:16;95625.81;;;6.05;65.35
12146;BME280;6136;47.032;15.398;2023-03-11T04:33:44;95623.94;;;6.07;65.04
12146;BME280;6136;47.032;15.398;2023-03-11T04:36:13;95624.97;;;6.05;64.58
12146;BME280;6136;47.032;15.398;2023-03-11T04:38:41;95630.72;;;6.10;63.77
12146;BME280;6136;47.032;15.398;2023-03-11T04:41:11;95639.72;;;6.18;60.30
12146;BME280;6136;47.032;15.398;2023-03-11T04:43:40;95655.84;;;6.14;63.38
12146;BME280;6136;47.032;15.398;2023-03-11T04:46:08;95646.38;;;6.11;62.97
12146;BME280;6136;47.032;15.398;2023-03-11T04:48:40;95636.72;;;6.12;59.32
12146;BME280;6136;47.032;15.398;2023-03-11T04:51:08;95654.06;;;6.14;59.01
12146;BME280;6136;47.032;15.398;2023-03-11T04:53:36;95641.97;;;6.23;59.67
12146;BME280;6136;47.032;15.398;2023-03-11T04:56:04;95659.44;;;6.24;58.93
12146;BME280;6136;47.032;15.398;2023-03-11T04:58:35;95668.16;;;6.24;58.40
12146;BME280;6136;47.032;15.398;2023-03-11T05:01:03;95651.09;;;6.30;56.07
12146;BME280;6136;47.032;15.398;2023-03-11T05:03:32;95665.28;;;6.16;57.92
12146;BME280;6136;47.032;15.398;2023-03-11T05:06:02;95657.53;;;6.15;56.68
12146;BME280;6136;47.032;15.398;2023-03-11T05:08:30;95658.44;;;6.03;57.83
12146;BME280;6136;47.032;15.398;2023-03-11T05:10:58;95668.94;;;6.03;55.52
12146;BME280;6136;47.032;15.398;2023-03-11T05:13:27;95665.00;;;5.97;57.14
12146;BME280;6136;47.032;15.398;2023-03-11T05:15:56;95682.75;;;5.94;58.59
12146;BME280;6136;47.032;15.398;2023-03-11T05:18:24;95679.66;;;5.89;56.52
12146;BME280;6136;47.032;15.398;2023-03-11T05:20:53;95691.09;;;5.88;54.90
12146;BME280;6136;47.032;15.398;2023-03-11T05:23:26;95695.06;;;5.93;56.19
12146;BME280;6136;47.032;15.398;2023-03-11T05:25:54;95691.63;;;5.93;56.74
12146;BME280;6136;47.032;15.398;2023-03-11T05:28:22;95699.06;;;5.86;56.38
12146;BME280;6136;47.032;15.398;2023-03-11T05:30:52;95690.34;;;5.85;60.41
12146;BME280;6136;47.032;15.398;2023-03-11T05:33:21;95706.69;;;5.78;58.67
12146;BME280;6136;47.032;15.398;2023-03-11T05:35:50;95691.53;;;5.81;56.53
12146;BME280;6136;47.032;15.398;2023-03-11T05:38:19;95716.38;;;5.77;56.40
12146;BME280;6136;47.032;15.398;2023-03-11T05:40:49;95709.31;;;5.78;55.84
12146;BME280;6136;47.032;15.398;2023-03-11T05:43:17;95719.69;;;5.79;55.52
12146;BME280;6136;47.032;15.398;2023-03-11T05:45:51;95722.00;;;5.84;54.66
12146;BME280;6136;47.032;15.398;2023-03-11T05:48:19;95726.19;;;5.86;55.79
12146;BME280;6136;47.032;15.398;2023-03-11T05:50:47;95716.19;;;6.15;52.38
12146;BME280;6136;47.032;15.398;2023-03-11T05:53:16;95724.44;;;6.11;53.51
12146;BME280;6136;47.032;15.398;2023-03-11T05:55:44;95715.31;;;6.04;53.68
12146;BME280;6136;47.032;15.398;2023-03-11T05:58:14;95721.34;;;6.17;51.54
12146;BME280;6136;47.032;15.398;2023-03-11T06:00:42;95723.97;;;6.17;54.84
12146;BME280;6136;47.032;15.398;2023-03-11T06:03:11;95727.78;;;6.13;56.33
12146;BME280;6136;47.032;15.398;2023-03-11T06:05:43;95734.00;;;6.12;60.59
12146;BME280;6136;47.032;15.398;2023-03-11T06:08:12;95744.88;;;6.07;63.45
12146;BME280;6136;47.032;15.398;2023-03-11T06:10:40;95718.91;;;6.03;61.17
12146;BME280;6136;47.032;15.398;2023-03-11T06:13:09;95716.94;;;5.94;60.74
12146;BME280;6136;47.032;15.398;2023-03-11T06:15:47;95734.38;;;5.95;60.58
12146;BME280;6136;47.032;15.398;2023-03-11T06:18:16;95734.91;;;6.00;62.03
12146;BME280;6136;47.032;15.398;2023-03-11T06:20:44;95729.41;;;6.03;58.34
12146;BME280;6136;47.032;15.398;2023-03-11T06:23:13;95739.25;;;6.12;59.24
12146;BME280;6136;47.032;15.398;2023-03-11T06:25:41;95748.38;;;6.19;59.64
12146;BME280;6136;47.032;15.398;2023-03-11T06:28:10;95744.03;;;6.42;60.79
12146;BME280;6136;47.032;15.398;2023-03-11T06:30:39;95742.63;;;6.49;56.54
12146;BME280;6136;47.032;15.398;2023-03-11T06:33:11;95747.06;;;6.59;56.85
12146;BME280;6136;47.032;15.398;2023-03-11T06:35:41;95751.63;;;6.69;56.34
12146;BME280;6136;47.032;15.398;2023-03-11T06:38:09;95754.03;;;6.72;56.09
12146;BME280;6136;47.032;15.398;2023-03-11T06:40:38;95751.41;;;6.83;58.04
12146;BME280;6136;47.032;15.398;2023-03-11T06:43:06;95744.38;;;6.83;54.06
12146;BME280;6136;47.032;15.398;2023-03-11T06:45:37;95768.91;;;6.84;54.54
12146;BME280;6136;47.032;15.398;2023-03-11T06:48:07;95781.47;;;6.80;53.94
12146;BME280;6136;47.032;15.398;2023-03-11T06:50:37;95781.22;;;6.83;53.95
12146;BME280;6136;47.032;15.398;2023-03-11T06:53:05;95789.00;;;6.85;54.39
12146;BME280;6136;47.032;15.398;2023-03-11T06:55:35;95797.16;;;6.93;52.59
12146;BME280;6136;47.032;15.398;2023-03-11T06:58:03;95797.63;;;6.98;52.50
12146;BME280;6136;47.032;15.398;2023-03-11T07:00:32;95800.28;;;6.98;52.50
12146;BME280;6136;47.032;15.398;2023-03-11T07:03:01;95804.97;;;7.06;52.59
12146;BME280;6136;47.032;15.398;2023-03-11T07:05:30;95815.50;;;7.06;52.70
12146;BME280;6136;47.032;15.398;2023-03-11T07:08:05;95806.31;;;7.11;50.51
12146;BME280;6136;47.032;15.398;2023-03-11T07:10:33;95818.50;;;7.12;51.57
12146;BME280;6136;47.032;15.398;2023-03-11T07:13:02;95825.69;;;7.21;52.25
12146;BME280;6136;47.032;15.398;2023-03-11T07:15:30;95816.88;;;7.33;50.96
12146;BME280;6136;47.032;15.398;2023-03-11T07:17:59;95817.56;;;7.35;51.06
12146;BME280;6136;47.032;15.398;2023-03-11T07:20:27;95822.84;;;7.47;49.81
12146;BME280;6136;47.032;15.398;2023-03-11T07:22:56;95821.91;;;7.59;50.02
12146;BME280;6136;47.032;15.398;2023-03-11T07:25:25;95831.47;;;7.71;50.24
12146;BME280;6136;47.032;15.398;2023-03-11T07:27:53;95840.69;;;7.99;47.92
12146;BME280;6136;47.032;15.398;2023-03-11T07:30:21;95840.91;;;8.18;47.94
12146;BME280;6136;47.032;15.398;2023-03-11T07:32:49;95848.44;;;8.34;49.13
12146;BME280;6136;47.032;15.398;2023-03-11T07:35:18;95847.66;;;8.54;46.66
12146;BME280;6136;47.032;15.398;2023-03-11T07:37:46;95847.38;;;8.68;45.77
12146;BME280;6136;47.032;15.398;2023-03-11T07:40:14;95862.59;;;8.76;48.26
12146;BME280;6136;47.032;15.398;2023-03-11T07:42:44;95858.78;;;8.37;49.36
12146;BME280;6136;47.032;15.398;2023-03-11T07:45:12;95840.31;;;8.37;51.82
12146;BME280;6136;47.032;15.398;2023-03-11T07:47:40;95863.19;;;8.25;51.56
12146;BME280;6136;47.032;15.398;2023-03-11T07:50:10;95863.16;;;8.47;51.45
12146;BME280;6136;47.032;15.398;2023-03-11T07:52:38;95867.03;;;8.75;50.92
12146;BME280;6136;47.032;15.398;2023-03-11T07:55:07;95869.03;;;8.83;49.60
12146;BME280;6136;47.032;15.398;2023-03-11T07:57:35;95873.91;;;8.99;48.87
12146;BME280;6136;47.032;15.398;2023-03-11T08:00:06;95879.72;;;9.34;49.43
12146;BME280;6136;47.032;15.398;2023-03-11T08:02:37;95868.75;;;9.90;46.43
12146;BME280;6136;47.032;15.398;2023-03-11T08:05:06;95886.19;;;11.40;44.44
12146;BME280;6136;47.032;15.398;2023-03-11T08:07:34;95867.78;;;12.76;42.05
12146;BME280;6136;47.032;15.398;2023-03-11T08:10:03;95871.94;;;14.53;36.88
12146;BME280;6136;47.032;15.398;2023-03-11T08:12:31;95865.94;;;15.90;32.45
12146;BME280;6136;47.032;15.398;2023-03-11T08:14:59;95858.75;;;16.46;30.82
12146;BME280;6136;47.032;15.398;2023-03-11T08:17:29;95862.16;;;16.79;30.45
12146;BME280;6136;47.032;15.398;2023-03-11T08:19:57;95852.03;;;18.77;25.37
12146;BME280;6136;47.032;15.398;2023-03-11T08:22:25;95867.09;;;18.04;27.39
12146;BME280;6136;47.032;15.398;2023-03-11T08:24:53;95866.81;;;17.99;27.21
12146;BME280;6136;47.032;15.398;2023-03-11T08:27:22;95870.09;;;19.83;24.83
12146;BME280;6136;47.032;15.398;2023-03-11T08:29:50;95873.88;;;20.16;24.72
12146;BME280;6136;47.032;15.398;2023-03-11T08:32:18;95872.09;;;21.05;23.20
12146;BME280;6136;47.032;15.398;2023-03-11T08:34:48;95879.31;;;21.46;23.25
12146;BME280;6136;47.032;15.398;2023-03-11T08:37:16;95875.09;;;19.86;24.23
12146;BME280;6136;47.032;15.398;2023-03-11T08:39:44;95882.41;;;19.70;22.29
12146;BME280;6136;47.032;15.398;2023-03-11T08:42:12;95871.69;;;20.61;23.07
12146;BME280;6136;47.032;15.398;2023-03-11T08:44:41;95870.50;;;21.98;21.28
12146;BME280;6136;47.032;15.398;2023-03-11T08:47:09;95881.84;;;21.67;21.10
12146;BME280;6136;47.032;15.398;2023-03-11T08:49:37;95878.19;;;23.05;20.22
12146;BME280;6136;47.032;15.398;2023-03-11T08:52:07;95884.81;;;22.18;21.25
12146;BME280;6136;47.032;15.398;2023-03-11T08:54:35;95882.66;;;22.66;21.42
12146;BME280;6136;47.032;15.398;2023-03-11T08:57:03;95877.13;;;23.19;19.17
12146;BME280;6136;47.032;15.398;2023-03-11T08:59:31;95869.03;;;24.13;19.72
12146;BME280;6136;47.032;15.398;2023-03-11T09:01:59;95885.31;;;23.37;19.61
12146;BME280;6136;47.032;15.398;2023-03-11T09:04:28;95895.53;;;23.73;19.21
12146;BME280;6136;47.032;15.398;2023-03-11T09:06:56;95883.09;;;23.66;19.11
12146;BME280;6136;47.032;15.398;2023-03-11T09:09:25;95894.31;;;23.31;19.53
12146;BME280;6136;47.032;15.398;2023-03-11T09:11:53;95883.59;;;24.62;19.27
12146;BME280;6136;47.032;15.398;2023-03-11T09:14:21;95881.75;;;24.81;17.72
12146;BME280;6136;47.032;15.398;2023-03-11T09:16:50;95890.31;;;23.40;18.50
12146;BME280;6136;47.032;15.398;2023-03-11T09:19:18;95904.69;;;23.34;17.75
12146;BME280;6136;47.032;15.398;2023-03-11T09:21:46;95910.00;;;23.92;19.06
12146;BME280;6136;47.032;15.398;2023-03-11T09:24:14;95895.34;;;22.59;18.62
12146;BME280;6136;47.032;15.398;2023-03-11T09:26:44;95902.41;;;23.31;18.17
12146;BME280;6136;47.032;15.398;2023-03-11T09:29:12;95897.38;;;23.48;18.36
12146;BME280;6136;47.032;15.398;2023-03-11T09:31:40;95902.19;;;24.02;18.63
12146;BME280;6136;47.032;15.398;2023-03-11T09:34:09;95897.03;;;24.93;18.56
12146;BME280;6136;47.032;15.398;2023-03-11T09:36:41;95898.50;;;22.03;18.98
12146;BME280;6136;47.032;15.398;2023-03-11T09:39:10;95912.00;;;23.20;18.86
12146;BME280;6136;47.032;15.398;2023-03-11T09:41:44;95922.09;;;22.94;18.02
12146;BME280;6136;47.032;15.398;2023-03-11T09:44:29;95929.50;;;24.01;18.26
12146;BME280;6136;47.032;15.398;2023-03-11T09:47:32;95925.03;;;22.46;18.57
12146;BME280;6136;47.032;15.398;2023-03-11T09:50:25;95935.28;;;23.73;19.10
12146;BME280;6136;47.032;15.398;2023-03-11T09:53:11;95945.00;;;23.49;18.66
12146;BME280;6136;47.032;15.398;2023-03-11T09:55:45;95947.06;;;22.56;17.92
12146;BME280;6136;47.032;15.398;2023-03-11T09:58:19;95938.34;;;23.38;18.50
12146;BME280;6136;47.032;15.398;2023-03-11T10:00:50;95941.31;;;25.24;16.35
12146;BME280;6136;47.032;15.398;2023-03-11T10:03:25;95939.94;;;25.51;16.62
12146;BME280;6136;47.032;15.398;2023-03-11T10:06:02;95949.22;;;26.21;15.89
12146;BME280;6136;47.032;15.398;2023-03-11T10:08:33;95954.25;;;27.29;14.92
12146;BME280;6136;47.032;15.398;2023-03-11T10:11:15;95961.22;;;24.50;17.31
12146;BME280;6136;47.032;15.398;2023-03-11T10:13:48;95960.81;;;25.50;16.10
12146;BME280;6136;47.032;15.398;2023-03-11T10:16:26;95950.84;;;26.52;15.80
12146;BME280;6136;47.032;15.398;2023-03-11T10:19:03;95978.13;;;24.70;16.11
12146;BME280;6136;47.032;15.398;2023-03-11T10:21:43;95976.34;;;25.62;15.59
12146;BME280;6136;47.032;15.398;2023-03-11T10:24:37;95980.69;;;24.02;17.55
12146;BME280;6136;47.032;15.398;2023-03-11T10:27:13;95978.66;;;24.54;17.34
12146;BME280;6136;47.032;15.398;2023-03-11T10:29:49;95984.38;;;25.86;16.20
12146;BME280;6136;47.032;15.398;2023-03-11T10:32:24;95991.41;;;19.58;19.49
12146;BME280;6136;47.032;15.398;2023-03-11T10:34:58;95979.03;;;22.46;17.95
12146;BME280;6136;47.032;15.398;2023-03-11T10:37:33;95992.03;;;24.49;16.87
12146;BME280;6136;47.032;15.398;2023-03-11T10:40:23;95992.84;;;26.38;15.51
12146;BME280;6136;47.032;15.398;2023-03-11T10:42:54;95993.03;;;24.79;16.38
12146;BME280;6136;47.032;15.398;2023-03-11T10:45:24;95987.06;;;27.11;14.83
12146;BME280;6136;47.032;15.398;2023-03-11T10:47:55;96010.06;;;26.32;15.35
12146;BME280;6136;47.032;15.398;2023-03-11T10:50:23;96011.44;;;24.14;16.65
12146;BME280;6136;47.032;15.398;2023-03-11T10:53:05;96021.63;;;22.44;17.47
12146;BME280;6136;47.032;15.398;2023-03-11T10:55:34;96013.50;;;24.12;17.62
12146;BME280;6136;47.032;15.398;2023-03-11T10:58:09;95996.63;;;25.41;15.43
12146;BME280;6136;47.032;15.398;2023-03-11T11:00:39;96001.47;;;27.23;15.00
12146;BME280;6136;47.032;15.398;2023-03-11T11:03:21;96011.38;;;24.27;17.16
12146;BME280;6136;47.032;15.398;2023-03-11T11:06:01;96002.81;;;25.96;15.84
12146;BME280;6136;47.032;15.398;2023-03-11T11:08:31;95999.31;;;27.37;14.52
12146;BME280;6136;47.032;15.398;2023-03-11T11:11:00;96002.63;;;26.81;15.57
12146;BME280;6136;47.032;15.398;2023-03-11T11:13:30;96012.28;;;25.75;15.76
12146;BME280;6136;47.032;15.398;2023-03-11T11:16:01;96003.91;;;26.66;14.45
12146;BME280;6136;47.032;15.398;2023-03-11T11:18:33;96014.47;;;25.67;16.67
12146;BME280;6136;47.032;15.398;2023-03-11T11:21:04;96014.94;;;23.83;16.38
12146;BME280;6136;47.032;15.398;2023-03-11T11:23:41;96009.47;;;23.90;16.74
12146;BME280;6136;47.032;15.398;2023-03-11T11:26:15;95996.44;;;25.18;16.32
12146;BME280;6136;47.032;15.398;2023-03-11T11:28:44;96001.69;;;26.34;15.14
12146;BME280;6136;47.032;15.398;2023-03-11T11:31:23;96001.22;;;26.07;15.77
12146;BME280;6136;47.032;15.398;2023-03-11T11:33:55;95995.91;;;25.09;16.12
12146;BME280;6136;47.032;15.398;2023-03-11T11:36:27;96006.53;;;25.29;15.69
12146;BME280;6136;47.032;15.398;2023-03-11T11:38:58;96005.47;;;25.30;15.34
12146;BME280;6136;47.032;15.398;2023-03-11T11:41:30;96025.84;;;23.64;17.23
12146;BME280;6136;47.032;15.398;2023-03-11T11:44:03;96022.28;;;21.79;19.42
12146;BME280;6136;47.032;15.398;2023-03-11T11:46:37;96014.31;;;24.19;16.87
12146;BME280;6136;47.032;15.398;2023-03-11T11:49:14;96026.81;;;24.20;17.09
12146;BME280;6136;47.032;15.398;2023-03-11T11:51:49;96022.97;;;24.66;16.67
12146;BME280;6136;47.032;15.398;2023-03-11T11:54:25;96017.81;;;24.26;16.69
12146;BME280;6136;47.032;15.398;2023-03-11T11:56:54;96027.56;;;23.96;17.54
12146;BME280;6136;47.032;15.398;2023-03-11T11:59:23;96018.44;;;26.01;15.57
12146;BME280;6136;47.032;15.398;2023-03-11T12:02:02;96023.41;;;25.31;15.71
12146;BME280;6136;47.032;15.398;2023-03-11T12:04:53;96010.28;;;24.85;16.83
12146;BME280;6136;47.032;15.398;2023-03-11T12:07:54;96015.53;;;23.21;16.62
12146;BME280;6136;47.032;15.398;2023-03-11T12:10:26;96024.63;;;23.97;16.08
12146;BME280;6136;47.032;15.398;2023-03-11T12:15:59;96009.28;;;24.79;15.74
12146;BME280;6136;47.032;15.398;2023-03-11T12:18:32;96022.44;;;24.51;17.35
12146;BME280;6136;47.032;15.398;2023-03-11T12:21:12;96003.06;;;25.22;15.99
12146;BME280;6136;47.032;15.398;2023-03-11T12:23:56;96021.66;;;25.61;16.24
12146;BME280;6136;47.032;15.398;2023-03-11T12:26:31;96014.50;;;23.80;16.49
12146;BME280;6136;47.032;15.398;2023-03-11T12:29:06;96023.47;;;24.18;16.54
12146;BME280;6136;47.032;15.398;2023-03-11T12:31:42;96019.31;;;24.22;16.67
12146;BME280;6136;47.032;15.398;2023-03-11T12:34:13;96019.31;;;24.22;16.80
12146;BME280;6136;47.032;15.398;2023-03-11T12:36:47;96022.38;;;23.88;16.88
12146;BME280;6136;47.032;15.398;2023-03-11T12:39:21;96014.66;;;23.53;17.02
12146;BME280;6136;47.032;15.398;2023-03-11T12:42:13;96028.72;;;23.69;16.95
12146;BME280;6136;47.032;15.398;2023-03-11T12:44:42;96023.69;;;23.08;17.42
12146;BME280;6136;47.032;15.398;2023-03-11T12:47:28;96009.97;;;23.09;17.85
12146;BME280;6136;47.032;15.398;2023-03-11T12:52:59;96015.16;;;22.32;18.08
12146;BME280;6136;47.032;15.398;2023-03-11T12:55:36;96022.88;;;23.78;17.26
12146;BME280;6136;47.032;15.398;2023-03-11T12:58:23;96027.22;;;22.69;17.65
12146;BME280;6136;47.032;15.398;2023-03-11T13:01:14;96042.38;;;23.93;16.36
12146;BME280;6136;47.032;15.398;2023-03-11T13:04:04;96028.41;;;22.00;17.98
12146;BME280;6136;47.032;15.398;2023-03-11T13:09:41;96031.59;;;22.37;17.68
12146;BME280;6136;47.032;15.398;2023-03-11T13:12:41;96046.53;;;23.89;15.83
12146;BME280;6136;47.032;15.398;2023-03-11T13:15:25;96047.78;;;22.30;17.87
12146;BME280;6136;47.032;15.398;2023-03-11T13:18:01;96045.84;;;23.36;17.20
12146;BME280;6136;47.032;15.398;2023-03-11T13:20:53;96053.16;;;23.29;15.74
12146;BME280;6136;47.032;15.398;2023-03-11T13:23:28;96061.94;;;24.65;15.05
12146;BME280;6136;47.032;15.398;2023-03-11T13:26:24;96052.59;;;22.94;17.93
12146;BME280;6136;47.032;15.398;2023-03-11T13:29:19;96062.94;;;22.51;16.91
12146;BME280;6136;47.032;15.398;2023-03-11T13:32:24;96070.44;;;22.75;16.98
12146;BME280;6136;47.032;15.398;2023-03-11T13:35:00;96073.94;;;22.63;17.23